Saint-Tite-Des-Caps, Canada
Current Conditions -  °F | °C
As of 1:00 PM on Monday 22 Dec 2014 (Local Time) from CYOY Reporting Station
Overcast Overcast  
Wind Chill: 13°   Ceiling: 2300
Heat Index: 19°   Visibility: 9mi
Dew Point: 14°   Wind: 5mph
Humidity: 80%   Direction: 360°N
Pressure: 30.37"   Gusts: NA
Location:  47.13°N, 70.77°W
Report Text: CYOY 221800Z AUTO 36004KT 9SM OVC023 M07/M10 A3037 RMK SLP298
Loading
Personal Weather Stations






























Interactive Weather Map New forecast layout! Learn more

10-Day Weather Forecast

Advertisements
Track Severe Weather on mobile